Pagrindinis puslapis
METAR-TAF:

METAR-TAF

Oro uostai :

Liberija, Kosta Rika

platuma: 10-37N, ilguma: 085-26W, Aukštis: 80 m

Dabartinis oras

Ataskaita buvo paskelbta 51 minutes, ne 20:00 UTC
Vėjas 6 kt iš Pietų
Temperatūra 29°C
Drėgmė 74%
Slėgis 1010 hPa
Matomumas 10 km arba daugiau
Išsisklaidę debesys ne aukštis 4500 ft
Su prošvaistėmis ne aukštis 13000 ft
Liūtis kaimynystėje

METAR: MRLB 302000Z 18006KT 9999 VCSH SCT045 BKN130 29/24 A2983

Laikas: 14:51 (20:51 UTC)

Prognozė

Ataskaita buvo paskelbta 9 valandos ir 51 minutes, ne 11:00 UTC
Prognozė galioja nuo 30 metu 12 UTC su 31 metu 12 UTC
Vėjas 7 kt iš Pietryčių
Matomumas 10 km arba daugiau
Mažai debesys ne aukštis 3000 ft
Išsisklaidę debesys ne aukštis 12000 ft
Laikinai
nuo 30 metu 12 UTC su 30 metu 15 UTC
Vėjas 2 kt nuo kintamojo kryptimis
Laikinai
nuo 30 metu 20 UTC su 30 metu 24 UTC
Su prošvaistėmis ne aukštis 10000 ft
lietus

TAF: MRLB 301100Z 3012/3112 13007KT 9999 FEW030 SCT120 TX31/3019Z TN23/3112Z TEMPO 3012/3015 VRB02KT TEMPO 3020/3024 RA BKN100

Orai ataskaitas ir orų prognozės (METAR, TAF).

turimą stotys yra geltonos ir raudonos taškus žemėlapyje.

Perkelti pele per norėdami pamatyti stoties vardą.

Tada spustelėkite, norėdami matyti oro stebėjimo ir prognozės.

Norėdami pakeisti žemėlapį: spustelėkite ant žalios mygtukų su juodo kryžiaus žemyn,; žalią mygtuką su brūkšneliu, jei norite nutolinti; arba žalių rodyklių gretimoms žemėlapius.


METAR-TAF: